sensor_id;sensor_type;location;lat;lon;timestamp;temperature;humidity
56162;DHT22;42045;52.986;6.014;2022-12-29T00:01:33;9.80;99.90
56162;DHT22;42045;52.986;6.014;2022-12-29T00:04:00;9.80;99.90
56162;DHT22;42045;52.986;6.014;2022-12-29T00:06:26;9.90;99.90
56162;DHT22;42045;52.986;6.014;2022-12-29T00:08:51;9.90;99.90
56162;DHT22;42045;52.986;6.014;2022-12-29T00:11:26;9.80;99.90
56162;DHT22;42045;52.986;6.014;2022-12-29T00:13:52;10.00;99.90
56162;DHT22;42045;52.986;6.014;2022-12-29T00:16:40;10.00;99.90
56162;DHT22;42045;52.986;6.014;2022-12-29T00:19:05;9.90;99.90
56162;DHT22;42045;52.986;6.014;2022-12-29T00:21:31;10.00;99.90
56162;DHT22;42045;52.986;6.014;2022-12-29T00:24:20;9.90;99.90
56162;DHT22;42045;52.986;6.014;2022-12-29T00:29:46;9.90;99.90
56162;DHT22;42045;52.986;6.014;2022-12-29T00:32:30;10.00;99.90
56162;DHT22;42045;52.986;6.014;2022-12-29T00:35:25;10.00;99.90
56162;DHT22;42045;52.986;6.014;2022-12-29T00:37:52;9.90;99.90
56162;DHT22;42045;52.986;6.014;2022-12-29T00:40:36;10.00;99.90
56162;DHT22;42045;52.986;6.014;2022-12-29T00:43:21;10.00;99.90
56162;DHT22;42045;52.986;6.014;2022-12-29T00:46:05;10.00;99.90
56162;DHT22;42045;52.986;6.014;2022-12-29T00:48:31;10.00;99.90
56162;DHT22;42045;52.986;6.014;2022-12-29T00:51:15;10.00;99.90
56162;DHT22;42045;52.986;6.014;2022-12-29T00:53:41;10.00;99.90
56162;DHT22;42045;52.986;6.014;2022-12-29T00:56:06;9.90;99.90
56162;DHT22;42045;52.986;6.014;2022-12-29T00:58:32;10.10;99.90
56162;DHT22;42045;52.986;6.014;2022-12-29T01:01:05;10.00;99.90
56162;DHT22;42045;52.986;6.014;2022-12-29T01:03:32;10.00;99.90
56162;DHT22;42045;52.986;6.014;2022-12-29T01:06:02;10.00;99.90
56162;DHT22;42045;52.986;6.014;2022-12-29T01:08:28;10.10;99.90
56162;DHT22;42045;52.986;6.014;2022-12-29T01:11:02;10.00;99.90
56162;DHT22;42045;52.986;6.014;2022-12-29T01:13:28;10.10;99.90
56162;DHT22;42045;52.986;6.014;2022-12-29T01:15:54;10.00;99.90
56162;DHT22;42045;52.986;6.014;2022-12-29T01:18:20;10.00;99.90
56162;DHT22;42045;52.986;6.014;2022-12-29T01:20:46;10.10;99.90
56162;DHT22;42045;52.986;6.014;2022-12-29T01:23:12;10.00;99.90
56162;DHT22;42045;52.986;6.014;2022-12-29T01:25:37;10.00;99.90
56162;DHT22;42045;52.986;6.014;2022-12-29T01:28:03;9.90;99.90
56162;DHT22;42045;52.986;6.014;2022-12-29T01:30:29;9.90;99.90
56162;DHT22;42045;52.986;6.014;2022-12-29T01:32:55;10.00;99.90
56162;DHT22;42045;52.986;6.014;2022-12-29T01:35:21;9.90;99.90
56162;DHT22;42045;52.986;6.014;2022-12-29T01:37:46;9.80;99.90
56162;DHT22;42045;52.986;6.014;2022-12-29T01:40:12;9.90;99.90
56162;DHT22;42045;52.986;6.014;2022-12-29T01:42:38;9.90;99.90
56162;DHT22;42045;52.986;6.014;2022-12-29T01:45:10;9.80;99.90
56162;DHT22;42045;52.986;6.014;2022-12-29T01:47:39;9.90;99.90
56162;DHT22;42045;52.986;6.014;2022-12-29T01:50:10;9.80;99.90
56162;DHT22;42045;52.986;6.014;2022-12-29T01:52:40;9.80;99.90
56162;DHT22;42045;52.986;6.014;2022-12-29T01:55:07;9.90;99.90
56162;DHT22;42045;52.986;6.014;2022-12-29T01:57:38;10.10;99.90
56162;DHT22;42045;52.986;6.014;2022-12-29T02:00:08;10.10;99.90
56162;DHT22;42045;52.986;6.014;2022-12-29T02:02:35;10.00;99.90
56162;DHT22;42045;52.986;6.014;2022-12-29T02:05:14;10.10;99.90
56162;DHT22;42045;52.986;6.014;2022-12-29T02:07:41;10.00;99.90
56162;DHT22;42045;52.986;6.014;2022-12-29T02:10:07;10.10;99.90
56162;DHT22;42045;52.986;6.014;2022-12-29T02:12:34;10.00;99.90
56162;DHT22;42045;52.986;6.014;2022-12-29T02:15:02;10.00;99.90
56162;DHT22;42045;52.986;6.014;2022-12-29T02:31:31;10.10;99.90
56162;DHT22;42045;52.986;6.014;2022-12-29T02:37:06;10.30;99.90
56162;DHT22;42045;52.986;6.014;2022-12-29T02:45:13;10.10;99.90
56162;DHT22;42045;52.986;6.014;2022-12-29T02:48:04;10.20;99.90
56162;DHT22;42045;52.986;6.014;2022-12-29T02:50:39;10.20;99.90
56162;DHT22;42045;52.986;6.014;2022-12-29T02:53:15;10.10;99.90
56162;DHT22;42045;52.986;6.014;2022-12-29T02:55:51;10.10;99.90
56162;DHT22;42045;52.986;6.014;2022-12-29T02:58:22;10.10;99.90
56162;DHT22;42045;52.986;6.014;2022-12-29T03:01:06;10.10;99.90
56162;DHT22;42045;52.986;6.014;2022-12-29T03:03:54;10.00;99.90
56162;DHT22;42045;52.986;6.014;2022-12-29T03:09:14;9.90;99.90
56162;DHT22;42045;52.986;6.014;2022-12-29T03:12:13;9.80;99.90
56162;DHT22;42045;52.986;6.014;2022-12-29T03:14:56;9.70;99.90
56162;DHT22;42045;52.986;6.014;2022-12-29T03:17:51;9.60;99.90
56162;DHT22;42045;52.986;6.014;2022-12-29T03:20:26;9.50;99.90
56162;DHT22;42045;52.986;6.014;2022-12-29T03:22:59;9.50;99.90
56162;DHT22;42045;52.986;6.014;2022-12-29T03:25:32;9.40;99.90
56162;DHT22;42045;52.986;6.014;2022-12-29T03:28:03;9.40;99.90
56162;DHT22;42045;52.986;6.014;2022-12-29T03:30:31;9.40;99.90
56162;DHT22;42045;52.986;6.014;2022-12-29T03:33:10;9.40;99.90
56162;DHT22;42045;52.986;6.014;2022-12-29T03:35:40;9.30;99.90
56162;DHT22;42045;52.986;6.014;2022-12-29T03:41:10;9.40;99.90
56162;DHT22;42045;52.986;6.014;2022-12-29T03:43:37;9.40;99.90
56162;DHT22;42045;52.986;6.014;2022-12-29T03:46:03;9.40;99.90
56162;DHT22;42045;52.986;6.014;2022-12-29T03:48:28;9.40;99.90
56162;DHT22;42045;52.986;6.014;2022-12-29T03:50:54;9.40;99.90
56162;DHT22;42045;52.986;6.014;2022-12-29T03:53:20;9.50;99.90
56162;DHT22;42045;52.986;6.014;2022-12-29T03:55:46;9.60;99.90
56162;DHT22;42045;52.986;6.014;2022-12-29T03:58:12;9.60;99.90
56162;DHT22;42045;52.986;6.014;2022-12-29T04:00:38;9.60;99.90
56162;DHT22;42045;52.986;6.014;2022-12-29T04:03:03;9.70;99.90
56162;DHT22;42045;52.986;6.014;2022-12-29T04:05:29;9.60;99.90
56162;DHT22;42045;52.986;6.014;2022-12-29T04:07:56;9.60;99.90
56162;DHT22;42045;52.986;6.014;2022-12-29T04:10:22;9.50;99.90
56162;DHT22;42045;52.986;6.014;2022-12-29T04:12:47;9.50;99.90
56162;DHT22;42045;52.986;6.014;2022-12-29T04:15:13;9.40;99.90
56162;DHT22;42045;52.986;6.014;2022-12-29T04:17:39;9.40;99.90
56162;DHT22;42045;52.986;6.014;2022-12-29T04:20:05;9.30;99.90
56162;DHT22;42045;52.986;6.014;2022-12-29T04:22:56;9.20;99.90
56162;DHT22;42045;52.986;6.014;2022-12-29T04:25:22;9.10;99.90
56162;DHT22;42045;52.986;6.014;2022-12-29T04:27:48;9.10;99.90
56162;DHT22;42045;52.986;6.014;2022-12-29T04:30:13;9.00;99.90
56162;DHT22;42045;52.986;6.014;2022-12-29T04:32:39;8.90;99.90
56162;DHT22;42045;52.986;6.014;2022-12-29T04:35:05;8.80;99.90
56162;DHT22;42045;52.986;6.014;2022-12-29T04:37:31;8.90;99.90
56162;DHT22;42045;52.986;6.014;2022-12-29T04:39:56;8.80;99.90
56162;DHT22;42045;52.986;6.014;2022-12-29T04:42:22;8.80;99.90
56162;DHT22;42045;52.986;6.014;2022-12-29T04:44:47;8.80;99.90
56162;DHT22;42045;52.986;6.014;2022-12-29T04:47:13;8.80;99.90
56162;DHT22;42045;52.986;6.014;2022-12-29T04:49:39;8.70;99.90
56162;DHT22;42045;52.986;6.014;2022-12-29T04:52:05;8.80;99.90
56162;DHT22;42045;52.986;6.014;2022-12-29T04:54:30;8.70;99.90
56162;DHT22;42045;52.986;6.014;2022-12-29T04:56:56;8.70;99.90
56162;DHT22;42045;52.986;6.014;2022-12-29T04:59:22;8.70;99.90
56162;DHT22;42045;52.986;6.014;2022-12-29T05:01:47;8.70;99.90
56162;DHT22;42045;52.986;6.014;2022-12-29T05:04:13;8.70;99.90
56162;DHT22;42045;52.986;6.014;2022-12-29T05:06:39;8.60;99.90
56162;DHT22;42045;52.986;6.014;2022-12-29T05:09:04;8.60;99.90
56162;DHT22;42045;52.986;6.014;2022-12-29T05:11:31;8.60;99.90
56162;DHT22;42045;52.986;6.014;2022-12-29T05:13:56;8.60;99.90
56162;DHT22;42045;52.986;6.014;2022-12-29T05:16:22;8.50;99.90
56162;DHT22;42045;52.986;6.014;2022-12-29T05:18:48;8.60;99.90
56162;DHT22;42045;52.986;6.014;2022-12-29T05:21:13;8.60;99.90
56162;DHT22;42045;52.986;6.014;2022-12-29T05:23:39;8.50;99.90
56162;DHT22;42045;52.986;6.014;2022-12-29T05:26:04;8.60;99.90
56162;DHT22;42045;52.986;6.014;2022-12-29T05:28:30;8.60;99.90
56162;DHT22;42045;52.986;6.014;2022-12-29T05:30:56;8.60;99.90
56162;DHT22;42045;52.986;6.014;2022-12-29T05:33:21;8.60;99.90
56162;DHT22;42045;52.986;6.014;2022-12-29T05:35:47;8.60;99.90
56162;DHT22;42045;52.986;6.014;2022-12-29T05:38:13;8.60;99.90
56162;DHT22;42045;52.986;6.014;2022-12-29T05:40:38;8.70;99.90
56162;DHT22;42045;52.986;6.014;2022-12-29T05:43:04;8.70;99.90
56162;DHT22;42045;52.986;6.014;2022-12-29T05:45:30;8.60;99.90
56162;DHT22;42045;52.986;6.014;2022-12-29T05:47:55;8.70;99.90
56162;DHT22;42045;52.986;6.014;2022-12-29T05:50:21;8.60;99.90
56162;DHT22;42045;52.986;6.014;2022-12-29T05:52:46;8.60;99.90
56162;DHT22;42045;52.986;6.014;2022-12-29T05:55:12;8.60;99.90
56162;DHT22;42045;52.986;6.014;2022-12-29T05:57:38;8.50;99.90
56162;DHT22;42045;52.986;6.014;2022-12-29T06:00:06;8.50;99.90
56162;DHT22;42045;52.986;6.014;2022-12-29T06:02:32;8.50;99.90
56162;DHT22;42045;52.986;6.014;2022-12-29T06:04:57;8.60;99.90
56162;DHT22;42045;52.986;6.014;2022-12-29T06:07:23;8.60;99.90
56162;DHT22;42045;52.986;6.014;2022-12-29T06:09:49;8.70;99.90
56162;DHT22;42045;52.986;6.014;2022-12-29T06:12:14;8.70;99.90
56162;DHT22;42045;52.986;6.014;2022-12-29T06:14:40;8.60;99.90
56162;DHT22;42045;52.986;6.014;2022-12-29T06:17:06;8.60;99.90
56162;DHT22;42045;52.986;6.014;2022-12-29T06:19:32;8.60;99.90
56162;DHT22;42045;52.986;6.014;2022-12-29T06:21:58;8.50;99.90
56162;DHT22;42045;52.986;6.014;2022-12-29T06:24:23;8.40;99.90
56162;DHT22;42045;52.986;6.014;2022-12-29T06:26:49;8.50;99.90
56162;DHT22;42045;52.986;6.014;2022-12-29T06:29:15;8.50;99.90
56162;DHT22;42045;52.986;6.014;2022-12-29T06:31:43;8.50;99.90
56162;DHT22;42045;52.986;6.014;2022-12-29T06:34:11;8.50;99.90
56162;DHT22;42045;52.986;6.014;2022-12-29T06:36:37;8.40;99.90
56162;DHT22;42045;52.986;6.014;2022-12-29T06:39:03;8.40;99.90
56162;DHT22;42045;52.986;6.014;2022-12-29T06:41:28;8.40;99.90
56162;DHT22;42045;52.986;6.014;2022-12-29T06:43:54;8.30;99.90
56162;DHT22;42045;52.986;6.014;2022-12-29T06:46:20;8.30;99.90
56162;DHT22;42045;52.986;6.014;2022-12-29T06:48:45;8.30;99.90
56162;DHT22;42045;52.986;6.014;2022-12-29T06:51:11;8.40;99.90
56162;DHT22;42045;52.986;6.014;2022-12-29T06:53:37;8.50;99.90
56162;DHT22;42045;52.986;6.014;2022-12-29T06:56:02;8.50;99.90
56162;DHT22;42045;52.986;6.014;2022-12-29T06:58:28;8.50;99.90
56162;DHT22;42045;52.986;6.014;2022-12-29T07:00:54;8.60;99.90
56162;DHT22;42045;52.986;6.014;2022-12-29T07:03:20;8.60;99.90
56162;DHT22;42045;52.986;6.014;2022-12-29T07:05:45;8.60;99.90
56162;DHT22;42045;52.986;6.014;2022-12-29T07:08:11;8.60;99.90
56162;DHT22;42045;52.986;6.014;2022-12-29T07:10:36;8.60;99.90
56162;DHT22;42045;52.986;6.014;2022-12-29T07:13:02;8.60;99.90
56162;DHT22;42045;52.986;6.014;2022-12-29T07:15:28;8.70;99.90
56162;DHT22;42045;52.986;6.014;2022-12-29T07:17:54;8.70;99.90
56162;DHT22;42045;52.986;6.014;2022-12-29T07:20:19;8.70;99.90
56162;DHT22;42045;52.986;6.014;2022-12-29T07:22:45;8.70;99.90
56162;DHT22;42045;52.986;6.014;2022-12-29T07:25:12;8.70;99.90
56162;DHT22;42045;52.986;6.014;2022-12-29T07:27:38;8.70;99.90
56162;DHT22;42045;52.986;6.014;2022-12-29T07:30:04;8.80;99.90
56162;DHT22;42045;52.986;6.014;2022-12-29T07:32:33;8.80;99.90
56162;DHT22;42045;52.986;6.014;2022-12-29T07:34:59;8.90;99.90
56162;DHT22;42045;52.986;6.014;2022-12-29T07:37:24;8.90;99.90
56162;DHT22;42045;52.986;6.014;2022-12-29T07:39:50;8.90;99.90
56162;DHT22;42045;52.986;6.014;2022-12-29T07:42:16;8.80;99.90
56162;DHT22;42045;52.986;6.014;2022-12-29T07:44:41;8.80;99.90
56162;DHT22;42045;52.986;6.014;2022-12-29T07:47:07;8.80;99.90
56162;DHT22;42045;52.986;6.014;2022-12-29T07:49:33;8.90;99.90
56162;DHT22;42045;52.986;6.014;2022-12-29T07:51:58;8.80;99.90
56162;DHT22;42045;52.986;6.014;2022-12-29T07:54:24;8.80;99.90
56162;DHT22;42045;52.986;6.014;2022-12-29T07:56:50;8.80;99.90
56162;DHT22;42045;52.986;6.014;2022-12-29T07:59:15;8.90;99.90
56162;DHT22;42045;52.986;6.014;2022-12-29T08:01:41;8.80;99.90
56162;DHT22;42045;52.986;6.014;2022-12-29T08:04:07;8.80;99.90
56162;DHT22;42045;52.986;6.014;2022-12-29T08:06:33;8.80;99.90
56162;DHT22;42045;52.986;6.014;2022-12-29T08:08:58;8.80;99.90
56162;DHT22;42045;52.986;6.014;2022-12-29T08:11:25;8.80;99.90
56162;DHT22;42045;52.986;6.014;2022-12-29T08:13:52;8.80;99.90
56162;DHT22;42045;52.986;6.014;2022-12-29T08:16:17;8.80;99.90
56162;DHT22;42045;52.986;6.014;2022-12-29T08:18:44;8.80;99.90
56162;DHT22;42045;52.986;6.014;2022-12-29T08:21:10;8.90;99.90
56162;DHT22;42045;52.986;6.014;2022-12-29T08:23:35;8.80;99.90
56162;DHT22;42045;52.986;6.014;2022-12-29T08:26:03;8.90;99.90
56162;DHT22;42045;52.986;6.014;2022-12-29T08:28:30;8.90;99.90
56162;DHT22;42045;52.986;6.014;2022-12-29T08:31:00;8.90;99.90
56162;DHT22;42045;52.986;6.014;2022-12-29T08:33:27;9.00;99.90
56162;DHT22;42045;52.986;6.014;2022-12-29T08:35:59;8.90;99.90
56162;DHT22;42045;52.986;6.014;2022-12-29T08:38:25;8.90;99.90
56162;DHT22;42045;52.986;6.014;2022-12-29T08:40:52;8.90;99.90
56162;DHT22;42045;52.986;6.014;2022-12-29T08:43:17;9.00;99.90
56162;DHT22;42045;52.986;6.014;2022-12-29T08:45:43;9.00;99.90
56162;DHT22;42045;52.986;6.014;2022-12-29T08:48:08;9.00;99.90
56162;DHT22;42045;52.986;6.014;2022-12-29T08:50:34;8.90;99.90
56162;DHT22;42045;52.986;6.014;2022-12-29T08:53:00;9.00;99.90
56162;DHT22;42045;52.986;6.014;2022-12-29T08:55:26;9.00;99.90
56162;DHT22;42045;52.986;6.014;2022-12-29T08:57:51;9.00;99.90
56162;DHT22;42045;52.986;6.014;2022-12-29T09:00:17;9.00;99.90
56162;DHT22;42045;52.986;6.014;2022-12-29T09:02:43;9.00;99.90
56162;DHT22;42045;52.986;6.014;2022-12-29T09:05:09;8.90;99.90
56162;DHT22;42045;52.986;6.014;2022-12-29T09:07:35;8.80;99.90
56162;DHT22;42045;52.986;6.014;2022-12-29T09:10:01;8.80;99.90
56162;DHT22;42045;52.986;6.014;2022-12-29T09:12:27;8.80;99.90
56162;DHT22;42045;52.986;6.014;2022-12-29T09:14:52;8.80;99.90
56162;DHT22;42045;52.986;6.014;2022-12-29T09:17:18;8.90;99.90
56162;DHT22;42045;52.986;6.014;2022-12-29T09:20:03;8.90;99.90
56162;DHT22;42045;52.986;6.014;2022-12-29T09:22:29;8.90;99.90
56162;DHT22;42045;52.986;6.014;2022-12-29T09:24:55;8.90;99.90
56162;DHT22;42045;52.986;6.014;2022-12-29T09:27:20;9.00;99.90
56162;DHT22;42045;52.986;6.014;2022-12-29T09:29:46;8.90;99.90
56162;DHT22;42045;52.986;6.014;2022-12-29T09:32:12;9.00;99.90
56162;DHT22;42045;52.986;6.014;2022-12-29T09:34:37;8.90;99.90
56162;DHT22;42045;52.986;6.014;2022-12-29T09:37:03;8.80;99.90
56162;DHT22;42045;52.986;6.014;2022-12-29T09:39:29;8.80;99.90
56162;DHT22;42045;52.986;6.014;2022-12-29T09:46:56;8.80;99.90
56162;DHT22;42045;52.986;6.014;2022-12-29T09:49:31;8.70;99.90
56162;DHT22;42045;52.986;6.014;2022-12-29T09:52:10;8.80;99.90
56162;DHT22;42045;52.986;6.014;2022-12-29T09:57:45;8.70;99.90
56162;DHT22;42045;52.986;6.014;2022-12-29T10:03:19;8.70;99.90
56162;DHT22;42045;52.986;6.014;2022-12-29T10:06:54;8.60;99.90
56162;DHT22;42045;52.986;6.014;2022-12-29T10:14:57;8.50;99.90
56162;DHT22;42045;52.986;6.014;2022-12-29T10:25:39;8.30;99.90
56162;DHT22;42045;52.986;6.014;2022-12-29T10:28:19;8.50;99.90
56162;DHT22;42045;52.986;6.014;2022-12-29T10:30:48;8.50;99.90
56162;DHT22;42045;52.986;6.014;2022-12-29T10:33:24;8.50;99.90
56162;DHT22;42045;52.986;6.014;2022-12-29T10:35:52;8.60;99.90
56162;DHT22;42045;52.986;6.014;2022-12-29T10:41:01;8.50;99.90
56162;DHT22;42045;52.986;6.014;2022-12-29T10:43:35;8.50;99.90
56162;DHT22;42045;52.986;6.014;2022-12-29T10:46:07;8.60;99.90
56162;DHT22;42045;52.986;6.014;2022-12-29T10:48:35;8.50;99.90
56162;DHT22;42045;52.986;6.014;2022-12-29T10:51:20;8.40;99.90
56162;DHT22;42045;52.986;6.014;2022-12-29T10:53:59;8.60;99.90
56162;DHT22;42045;52.986;6.014;2022-12-29T10:56:29;8.70;99.90
56162;DHT22;42045;52.986;6.014;2022-12-29T10:58:57;8.70;99.90
56162;DHT22;42045;52.986;6.014;2022-12-29T11:01:31;8.80;99.90
56162;DHT22;42045;52.986;6.014;2022-12-29T11:04:23;9.00;99.90
56162;DHT22;42045;52.986;6.014;2022-12-29T11:06:52;9.00;99.90
56162;DHT22;42045;52.986;6.014;2022-12-29T11:09:37;9.00;99.90
56162;DHT22;42045;52.986;6.014;2022-12-29T11:12:29;9.00;99.90
56162;DHT22;42045;52.986;6.014;2022-12-29T11:15:12;9.00;99.90
56162;DHT22;42045;52.986;6.014;2022-12-29T11:17:57;9.00;99.90
56162;DHT22;42045;52.986;6.014;2022-12-29T11:20:37;9.00;99.90
56162;DHT22;42045;52.986;6.014;2022-12-29T11:23:05;9.10;99.90
56162;DHT22;42045;52.986;6.014;2022-12-29T11:25:46;9.10;99.90
56162;DHT22;42045;52.986;6.014;2022-12-29T11:28:16;9.20;99.90
56162;DHT22;42045;52.986;6.014;2022-12-29T11:30:42;9.20;99.90
56162;DHT22;42045;52.986;6.014;2022-12-29T11:33:09;9.20;99.90
56162;DHT22;42045;52.986;6.014;2022-12-29T11:35:39;9.30;99.90
56162;DHT22;42045;52.986;6.014;2022-12-29T11:38:20;9.30;99.90
56162;DHT22;42045;52.986;6.014;2022-12-29T11:40:46;9.20;99.90
56162;DHT22;42045;52.986;6.014;2022-12-29T11:43:29;9.20;99.90
56162;DHT22;42045;52.986;6.014;2022-12-29T11:45:59;9.20;99.90
56162;DHT22;42045;52.986;6.014;2022-12-29T11:48:28;9.20;99.90
56162;DHT22;42045;52.986;6.014;2022-12-29T11:50:56;9.10;99.90
56162;DHT22;42045;52.986;6.014;2022-12-29T11:53:28;9.10;99.90
56162;DHT22;42045;52.986;6.014;2022-12-29T11:56:04;9.10;99.90
56162;DHT22;42045;52.986;6.014;2022-12-29T11:58:37;9.20;99.90
56162;DHT22;42045;52.986;6.014;2022-12-29T12:06:23;9.50;99.90
56162;DHT22;42045;52.986;6.014;2022-12-29T12:09:27;9.60;99.90
56162;DHT22;42045;52.986;6.014;2022-12-29T12:11:45;9.60;99.90
56162;DHT22;42045;52.986;6.014;2022-12-29T12:16:43;9.60;99.90
56162;DHT22;42045;52.986;6.014;2022-12-29T12:19:19;9.60;99.90
56162;DHT22;42045;52.986;6.014;2022-12-29T12:21:53;9.70;99.90
56162;DHT22;42045;52.986;6.014;2022-12-29T12:24:42;9.70;99.90
56162;DHT22;42045;52.986;6.014;2022-12-29T12:27:23;9.70;99.90
56162;DHT22;42045;52.986;6.014;2022-12-29T12:32:55;9.30;99.90
56162;DHT22;42045;52.986;6.014;2022-12-29T12:41:13;9.10;99.90
56162;DHT22;42045;52.986;6.014;2022-12-29T13:00:27;8.90;99.90
56162;DHT22;42045;52.986;6.014;2022-12-29T13:05:54;9.10;99.90
56162;DHT22;42045;52.986;6.014;2022-12-29T13:08:43;9.10;99.90
56162;DHT22;42045;52.986;6.014;2022-12-29T13:30:18;8.70;99.90
56162;DHT22;42045;52.986;6.014;2022-12-29T13:35:44;8.60;99.90
56162;DHT22;42045;52.986;6.014;2022-12-29T13:43:50;8.60;99.90
56162;DHT22;42045;52.986;6.014;2022-12-29T13:46:22;8.70;99.90
56162;DHT22;42045;52.986;6.014;2022-12-29T13:48:58;8.70;99.90
56162;DHT22;42045;52.986;6.014;2022-12-29T13:51:24;8.80;99.90
56162;DHT22;42045;52.986;6.014;2022-12-29T13:54:01;8.80;99.90
56162;DHT22;42045;52.986;6.014;2022-12-29T13:59:48;8.70;99.90
56162;DHT22;42045;52.986;6.014;2022-12-29T14:07:46;8.60;99.90
56162;DHT22;42045;52.986;6.014;2022-12-29T14:10:48;8.50;99.90
56162;DHT22;42045;52.986;6.014;2022-12-29T14:13:22;8.40;99.90
56162;DHT22;42045;52.986;6.014;2022-12-29T14:15:56;8.30;99.90
56162;DHT22;42045;52.986;6.014;2022-12-29T14:18:28;8.30;99.90
56162;DHT22;42045;52.986;6.014;2022-12-29T14:21:03;8.20;99.90
56162;DHT22;42045;52.986;6.014;2022-12-29T14:23:43;8.20;99.90
56162;DHT22;42045;52.986;6.014;2022-12-29T14:26:14;8.20;99.90
56162;DHT22;42045;52.986;6.014;2022-12-29T14:28:41;8.10;99.90
56162;DHT22;42045;52.986;6.014;2022-12-29T14:39:38;8.10;99.90
56162;DHT22;42045;52.986;6.014;2022-12-29T14:44:32;8.00;99.90
56162;DHT22;42045;52.986;6.014;2022-12-29T14:47:01;8.00;99.90
56162;DHT22;42045;52.986;6.014;2022-12-29T14:49:33;8.00;99.90
56162;DHT22;42045;52.986;6.014;2022-12-29T14:52:13;8.00;99.90
56162;DHT22;42045;52.986;6.014;2022-12-29T14:54:45;8.00;99.90
56162;DHT22;42045;52.986;6.014;2022-12-29T14:57:28;8.00;99.90
56162;DHT22;42045;52.986;6.014;2022-12-29T15:00:34;7.90;99.90
56162;DHT22;42045;52.986;6.014;2022-12-29T15:03:14;7.90;99.90
56162;DHT22;42045;52.986;6.014;2022-12-29T15:06:08;7.90;99.90
56162;DHT22;42045;52.986;6.014;2022-12-29T15:08:42;7.80;99.90
56162;DHT22;42045;52.986;6.014;2022-12-29T15:11:16;7.80;99.90
56162;DHT22;42045;52.986;6.014;2022-12-29T15:13:43;7.80;99.90
56162;DHT22;42045;52.986;6.014;2022-12-29T15:18:52;7.70;99.90
56162;DHT22;42045;52.986;6.014;2022-12-29T15:21:24;7.70;99.90
56162;DHT22;42045;52.986;6.014;2022-12-29T15:23:50;7.70;99.90
56162;DHT22;42045;52.986;6.014;2022-12-29T15:26:16;7.70;99.90
56162;DHT22;42045;52.986;6.014;2022-12-29T15:28:49;7.70;99.90
56162;DHT22;42045;52.986;6.014;2022-12-29T15:31:21;7.70;99.90
56162;DHT22;42045;52.986;6.014;2022-12-29T15:33:49;7.70;99.90
56162;DHT22;42045;52.986;6.014;2022-12-29T15:36:25;7.70;99.90
56162;DHT22;42045;52.986;6.014;2022-12-29T15:38:52;7.70;99.90
56162;DHT22;42045;52.986;6.014;2022-12-29T15:46:44;7.80;99.90
56162;DHT22;42045;52.986;6.014;2022-12-29T15:49:14;7.80;99.90
56162;DHT22;42045;52.986;6.014;2022-12-29T15:51:40;7.80;99.90
56162;DHT22;42045;52.986;6.014;2022-12-29T15:54:14;7.90;99.90
56162;DHT22;42045;52.986;6.014;2022-12-29T15:56:40;7.80;99.90
56162;DHT22;42045;52.986;6.014;2022-12-29T15:59:44;7.80;99.90
56162;DHT22;42045;52.986;6.014;2022-12-29T16:02:10;7.80;99.90
56162;DHT22;42045;52.986;6.014;2022-12-29T16:04:36;7.80;99.90
56162;DHT22;42045;52.986;6.014;2022-12-29T16:07:05;7.70;99.90
56162;DHT22;42045;52.986;6.014;2022-12-29T16:09:43;7.50;99.90
56162;DHT22;42045;52.986;6.014;2022-12-29T16:12:19;7.40;99.90
56162;DHT22;42045;52.986;6.014;2022-12-29T16:14:48;7.40;99.90
56162;DHT22;42045;52.986;6.014;2022-12-29T16:17:19;7.30;99.90
56162;DHT22;42045;52.986;6.014;2022-12-29T16:19:51;7.40;99.90
56162;DHT22;42045;52.986;6.014;2022-12-29T16:24:47;7.40;99.90
56162;DHT22;42045;52.986;6.014;2022-12-29T16:27:28;7.50;99.90
56162;DHT22;42045;52.986;6.014;2022-12-29T16:29:56;7.40;99.90
56162;DHT22;42045;52.986;6.014;2022-12-29T16:32:28;7.40;99.90
56162;DHT22;42045;52.986;6.014;2022-12-29T16:35:10;7.40;99.90
56162;DHT22;42045;52.986;6.014;2022-12-29T16:37:36;7.40;99.90
56162;DHT22;42045;52.986;6.014;2022-12-29T16:42:45;7.40;99.90
56162;DHT22;42045;52.986;6.014;2022-12-29T16:47:48;7.30;99.90
56162;DHT22;42045;52.986;6.014;2022-12-29T16:50:21;7.40;99.90
56162;DHT22;42045;52.986;6.014;2022-12-29T16:52:50;7.50;99.90
56162;DHT22;42045;52.986;6.014;2022-12-29T16:55:18;7.40;99.90
56162;DHT22;42045;52.986;6.014;2022-12-29T16:57:44;7.40;99.90
56162;DHT22;42045;52.986;6.014;2022-12-29T17:00:36;7.40;99.90
56162;DHT22;42045;52.986;6.014;2022-12-29T17:03:03;7.50;99.90
56162;DHT22;42045;52.986;6.014;2022-12-29T17:05:29;7.40;99.90
56162;DHT22;42045;52.986;6.014;2022-12-29T17:07:54;7.30;99.90
56162;DHT22;42045;52.986;6.014;2022-12-29T17:10:26;7.30;99.90
56162;DHT22;42045;52.986;6.014;2022-12-29T17:13:12;7.30;99.90
56162;DHT22;42045;52.986;6.014;2022-12-29T17:15:37;7.30;99.90
56162;DHT22;42045;52.986;6.014;2022-12-29T17:18:03;7.30;99.90
56162;DHT22;42045;52.986;6.014;2022-12-29T17:20:30;7.20;99.90
56162;DHT22;42045;52.986;6.014;2022-12-29T17:22:57;7.20;99.90
56162;DHT22;42045;52.986;6.014;2022-12-29T17:25:30;7.30;99.90
56162;DHT22;42045;52.986;6.014;2022-12-29T17:28:27;7.20;99.90
56162;DHT22;42045;52.986;6.014;2022-12-29T17:30:57;7.20;99.90
56162;DHT22;42045;52.986;6.014;2022-12-29T17:33:23;7.20;99.90
56162;DHT22;42045;52.986;6.014;2022-12-29T17:35:49;7.30;99.90
56162;DHT22;42045;52.986;6.014;2022-12-29T17:38:16;7.20;99.90
56162;DHT22;42045;52.986;6.014;2022-12-29T17:40:42;7.20;99.90
56162;DHT22;42045;52.986;6.014;2022-12-29T17:43:08;7.20;99.90
56162;DHT22;42045;52.986;6.014;2022-12-29T17:45:38;7.20;99.90
56162;DHT22;42045;52.986;6.014;2022-12-29T17:48:14;7.20;99.90
56162;DHT22;42045;52.986;6.014;2022-12-29T17:50:40;7.20;99.90
56162;DHT22;42045;52.986;6.014;2022-12-29T17:53:12;7.10;99.90
56162;DHT22;42045;52.986;6.014;2022-12-29T17:55:38;7.20;99.90
56162;DHT22;42045;52.986;6.014;2022-12-29T17:58:25;7.20;99.90
56162;DHT22;42045;52.986;6.014;2022-12-29T18:00:56;7.20;99.90
56162;DHT22;42045;52.986;6.014;2022-12-29T18:03:31;7.20;99.90
56162;DHT22;42045;52.986;6.014;2022-12-29T18:05:58;7.10;99.90
56162;DHT22;42045;52.986;6.014;2022-12-29T18:08:24;7.10;99.90
56162;DHT22;42045;52.986;6.014;2022-12-29T18:10:51;7.10;99.90
56162;DHT22;42045;52.986;6.014;2022-12-29T18:13:30;7.20;99.90
56162;DHT22;42045;52.986;6.014;2022-12-29T18:15:57;7.20;99.90
56162;DHT22;42045;52.986;6.014;2022-12-29T18:18:24;7.10;99.90
56162;DHT22;42045;52.986;6.014;2022-12-29T18:20:52;7.10;99.90
56162;DHT22;42045;52.986;6.014;2022-12-29T18:23:28;7.00;99.90
56162;DHT22;42045;52.986;6.014;2022-12-29T18:26:26;7.00;99.90
56162;DHT22;42045;52.986;6.014;2022-12-29T18:28:54;7.00;99.90
56162;DHT22;42045;52.986;6.014;2022-12-29T18:31:21;6.90;99.90
56162;DHT22;42045;52.986;6.014;2022-12-29T18:33:47;6.90;99.90
56162;DHT22;42045;52.986;6.014;2022-12-29T18:36:14;6.90;99.90
56162;DHT22;42045;52.986;6.014;2022-12-29T18:38:40;6.90;99.90
56162;DHT22;42045;52.986;6.014;2022-12-29T18:41:16;6.80;99.90
56162;DHT22;42045;52.986;6.014;2022-12-29T18:43:43;6.90;99.90